createdAt,value
2019-05-18T00:04:49.062Z,36.98
2019-05-18T00:09:53.374Z,38.88
2019-05-18T00:14:57.686Z,36.35
2019-05-18T00:20:02.083Z,39.03
2019-05-18T00:25:10.644Z,36.00
2019-05-18T00:30:15.551Z,37.15
2019-05-18T00:35:20.120Z,38.60
2019-05-18T00:40:24.516Z,37.48
2019-05-18T00:45:28.824Z,36.90
2019-05-18T00:50:38.047Z,37.00
2019-05-18T00:56:30.982Z,38.95
2019-05-18T01:01:05.565Z,35.25
2019-05-18T01:11:45.352Z,36.35
2019-05-18T01:17:06.965Z,36.98
2019-05-18T01:22:13.527Z,37.05
2019-05-18T01:27:18.000Z,36.83
2019-05-18T01:32:22.392Z,34.43
2019-05-18T01:37:26.778Z,35.92
2019-05-18T01:42:31.300Z,36.38
2019-05-18T01:47:35.694Z,34.78
2019-05-18T01:52:40.134Z,35.65
2019-05-18T01:57:45.565Z,36.75
2019-05-18T02:02:49.861Z,37.93
2019-05-18T02:07:54.260Z,37.95
2019-05-18T02:13:08.707Z,36.83
2019-05-18T02:18:26.888Z,37.48
2019-05-18T02:23:20.062Z,38.10
2019-05-18T02:28:27.180Z,34.55
2019-05-18T02:33:31.637Z,36.50
2019-05-18T02:38:56.635Z,36.17
2019-05-18T02:44:01.025Z,39.60
2019-05-18T02:49:05.403Z,39.55
2019-05-18T02:54:20.253Z,39.78
2019-05-18T02:59:24.548Z,36.17
2019-05-18T03:04:28.937Z,37.08
2019-05-18T03:09:33.246Z,37.03
2019-05-18T03:14:37.760Z,34.43
2019-05-18T03:19:42.106Z,36.30
2019-05-18T03:24:46.528Z,37.15
2019-05-18T03:29:50.910Z,41.28
2019-05-18T03:34:55.302Z,36.30
2019-05-18T03:39:59.683Z,36.80
2019-05-18T03:45:04.364Z,39.27
2019-05-18T03:50:10.198Z,38.53
2019-05-18T03:55:14.725Z,38.83
2019-05-18T04:00:19.185Z,39.13
2019-05-18T04:05:23.572Z,40.40
2019-05-18T04:10:28.870Z,42.43
2019-05-18T04:15:33.447Z,40.67
2019-05-18T04:20:37.985Z,40.92
2019-05-18T04:25:43.860Z,36.03
2019-05-18T04:30:48.555Z,37.85
2019-05-18T04:35:53.040Z,39.08
2019-05-18T04:40:58.245Z,42.00
2019-05-18T04:46:02.630Z,40.78
2019-05-18T04:51:07.470Z,43.60
2019-05-18T04:56:13.883Z,40.15
2019-05-18T05:01:18.399Z,37.70
2019-05-18T05:06:22.831Z,43.85
2019-05-18T05:11:27.877Z,40.88
2019-05-18T05:16:32.199Z,46.37
2019-05-18T05:21:36.519Z,42.88
2019-05-18T05:26:40.927Z,41.95
2019-05-18T05:31:45.308Z,47.10
2019-05-18T05:36:49.627Z,50.15
2019-05-18T05:41:54.037Z,50.28
2019-05-18T05:46:58.363Z,53.30
2019-05-18T05:52:02.675Z,49.60
2019-05-18T05:57:07.139Z,53.15
2019-05-18T06:02:11.538Z,55.65
2019-05-18T06:07:15.923Z,55.78
2019-05-18T06:12:20.308Z,52.70
2019-05-18T06:17:24.698Z,53.35
2019-05-18T06:22:29.084Z,49.03
2019-05-18T06:27:33.403Z,54.15
2019-05-18T06:32:37.790Z,51.58
2019-05-18T06:37:42.167Z,50.67
2019-05-18T06:42:46.580Z,52.03
2019-05-18T06:47:51.162Z,60.85
2019-05-18T06:52:55.543Z,52.03
2019-05-18T06:58:00.872Z,49.88
2019-05-18T07:03:05.256Z,46.73
2019-05-18T07:08:09.639Z,49.33
2019-05-18T07:13:14.029Z,46.20
2019-05-18T07:18:18.336Z,50.92
2019-05-18T07:23:22.819Z,45.20
2019-05-18T07:28:27.128Z,54.40
2019-05-18T07:33:31.518Z,51.20
2019-05-18T07:38:36.126Z,49.10
2019-05-18T07:43:41.769Z,47.98
2019-05-18T07:48:45.997Z,51.63
2019-05-18T07:53:50.308Z,52.65
2019-05-18T07:58:54.625Z,51.42
2019-05-18T08:03:59.005Z,53.55
2019-05-18T08:09:05.032Z,50.95
2019-05-18T08:14:09.412Z,48.40
2019-05-18T08:19:13.803Z,48.52
2019-05-18T08:24:18.193Z,50.92
2019-05-18T08:29:22.503Z,51.10
2019-05-18T08:34:26.810Z,49.42
2019-05-18T08:39:31.139Z,44.45
2019-05-18T08:44:35.510Z,47.05
2019-05-18T08:49:39.819Z,44.77
2019-05-18T08:54:44.239Z,57.62
2019-05-18T08:59:48.551Z,46.23
2019-05-18T09:04:52.858Z,43.28
2019-05-18T09:09:57.253Z,46.83
2019-05-18T09:15:01.650Z,43.73
2019-05-18T09:20:08.161Z,47.93
2019-05-18T09:25:13.681Z,47.83
2019-05-18T09:30:18.329Z,77.75
2019-05-18T09:35:22.961Z,46.85
2019-05-18T09:40:27.275Z,40.15
2019-05-18T09:45:31.746Z,39.25
2019-05-18T09:50:39.051Z,39.55
2019-05-18T10:00:47.103Z,37.90
2019-05-18T10:05:51.540Z,36.33
2019-05-18T10:10:55.938Z,33.63
2019-05-18T10:16:00.319Z,31.10
2019-05-18T10:21:04.798Z,32.93
2019-05-18T10:26:09.490Z,31.77
2019-05-18T10:31:13.807Z,30.90
2019-05-18T10:36:18.378Z,37.03
2019-05-18T10:41:22.686Z,30.43
2019-05-18T10:46:27.250Z,30.12
2019-05-18T10:51:31.635Z,29.98
2019-05-18T10:56:36.038Z,27.50
2019-05-18T11:01:43.758Z,26.62
2019-05-18T11:06:46.460Z,29.27
2019-05-18T11:11:50.767Z,26.07
2019-05-18T11:16:55.168Z,28.15
2019-05-18T11:21:59.571Z,23.80
2019-05-18T11:27:03.897Z,22.95
2019-05-18T11:32:08.270Z,21.15
2019-05-18T11:37:12.824Z,22.40
2019-05-18T11:42:17.236Z,21.25
2019-05-18T11:47:21.802Z,20.97
2019-05-18T11:52:26.205Z,20.68
2019-05-18T11:57:32.727Z,22.80
2019-05-18T12:02:37.304Z,23.57
2019-05-18T12:07:41.911Z,20.62
2019-05-18T12:12:46.299Z,19.57
2019-05-18T12:17:50.975Z,18.57
2019-05-18T12:22:55.602Z,17.62
2019-05-18T12:28:00.271Z,16.15
2019-05-18T12:33:04.703Z,24.35
2019-05-18T12:38:09.111Z,28.95
2019-05-18T12:43:13.421Z,24.55
2019-05-18T12:48:17.990Z,21.57
2019-05-18T12:53:22.373Z,21.65
2019-05-18T12:58:26.688Z,21.20
2019-05-18T13:03:31.096Z,20.35
2019-05-18T13:08:35.391Z,20.77
2019-05-18T13:13:39.923Z,22.48
2019-05-18T13:18:44.232Z,31.82
2019-05-18T13:23:48.534Z,24.37
2019-05-18T13:28:53.187Z,20.00
2019-05-18T13:33:57.629Z,19.95
2019-05-18T13:39:02.033Z,19.55
2019-05-18T13:44:06.806Z,21.75
2019-05-18T13:49:11.231Z,22.73
2019-05-18T13:54:15.538Z,22.45
2019-05-18T13:59:20.553Z,21.02
2019-05-18T14:04:24.961Z,20.27
2019-05-18T14:09:29.277Z,19.10
2019-05-18T14:14:33.658Z,18.98
2019-05-18T14:19:37.995Z,21.77
2019-05-18T14:24:42.301Z,18.98
2019-05-18T14:29:46.607Z,18.73
2019-05-18T14:34:51.053Z,18.57
2019-05-18T14:39:55.462Z,20.05
2019-05-18T14:44:59.782Z,19.52
2019-05-18T14:50:08.064Z,25.20
2019-05-18T14:55:12.824Z,16.15
2019-05-18T15:00:17.395Z,17.50
2019-05-18T15:05:21.714Z,25.55
2019-05-18T15:10:26.030Z,19.07
2019-05-18T15:15:30.429Z,19.85
2019-05-18T15:20:34.783Z,20.20
2019-05-18T15:25:50.052Z,20.12
2019-05-18T15:30:46.723Z,19.80
2019-05-18T15:36:01.405Z,19.07
2019-05-18T15:41:05.786Z,24.77
2019-05-18T15:46:10.282Z,30.85
2019-05-18T15:51:14.664Z,27.05
2019-05-18T15:56:18.975Z,28.87
2019-05-18T16:01:23.588Z,23.22
2019-05-18T16:06:27.981Z,27.48
2019-05-18T16:11:32.378Z,26.68
2019-05-18T16:16:36.699Z,25.12
2019-05-18T16:21:41.272Z,26.48
2019-05-18T16:26:45.582Z,27.55
2019-05-18T16:31:49.951Z,28.00
2019-05-18T16:36:54.340Z,27.82
2019-05-18T16:41:58.734Z,29.20
2019-05-18T16:47:03.042Z,31.37
2019-05-18T16:52:07.851Z,31.05
2019-05-18T16:57:12.237Z,30.57
2019-05-18T17:02:30.753Z,41.02
2019-05-18T17:07:23.323Z,38.50
2019-05-18T17:12:28.249Z,67.45
2019-05-18T17:17:35.343Z,81.00
2019-05-18T17:22:38.604Z,50.70
2019-05-18T17:27:42.919Z,40.73
2019-05-18T17:32:47.228Z,31.65
2019-05-18T17:37:51.669Z,37.33
2019-05-18T17:42:55.985Z,27.80
2019-05-18T17:48:00.310Z,24.40
2019-05-18T17:53:04.896Z,27.00
2019-05-18T17:58:09.214Z,25.62
2019-05-18T18:03:14.976Z,45.00
2019-05-18T18:08:19.421Z,51.55
2019-05-18T18:13:23.687Z,48.83
2019-05-18T18:18:28.373Z,48.78
2019-05-18T18:23:32.756Z,44.77
2019-05-18T18:28:37.141Z,48.38
2019-05-18T18:33:44.465Z,49.13
2019-05-18T18:38:48.847Z,44.48
2019-05-18T18:43:53.232Z,49.13
2019-05-18T18:48:57.543Z,49.83
2019-05-18T18:54:01.855Z,51.28
2019-05-18T18:59:07.010Z,50.98
2019-05-18T19:04:12.102Z,52.67
2019-05-18T19:09:16.418Z,53.15
2019-05-18T19:14:20.985Z,52.88
2019-05-18T19:19:25.298Z,57.27
2019-05-18T19:24:29.653Z,57.45
2019-05-18T19:29:33.967Z,61.53
2019-05-18T19:34:38.411Z,65.83
2019-05-18T19:39:42.860Z,61.95
2019-05-18T19:44:47.167Z,65.25
2019-05-18T19:49:51.482Z,65.03
2019-05-18T19:55:15.364Z,64.70
2019-05-18T20:00:20.483Z,63.85
2019-05-18T20:05:25.182Z,60.95
2019-05-18T20:10:29.748Z,65.05
2019-05-18T20:15:34.064Z,65.92
2019-05-18T20:20:38.392Z,63.42
2019-05-18T20:25:42.753Z,68.07
2019-05-18T20:30:47.185Z,73.20
2019-05-18T20:35:51.498Z,68.22
2019-05-18T20:40:55.980Z,67.97
2019-05-18T20:46:00.291Z,70.08
2019-05-18T20:51:04.609Z,73.52
2019-05-18T20:56:09.058Z,72.17
2019-05-18T21:01:13.503Z,71.05
2019-05-18T21:06:18.643Z,71.97
2019-05-18T21:11:23.076Z,72.82
2019-05-18T21:16:27.527Z,77.47
2019-05-18T21:21:31.857Z,75.45
2019-05-18T21:26:36.292Z,73.25
2019-05-18T21:31:40.705Z,78.52
2019-05-18T21:36:45.022Z,73.67
2019-05-18T21:41:49.342Z,74.87
2019-05-18T21:46:53.723Z,73.50
2019-05-18T21:51:58.045Z,81.10
2019-05-18T21:57:02.456Z,75.62
2019-05-18T22:02:07.017Z,76.25
2019-05-18T22:07:12.413Z,75.78
2019-05-18T22:12:16.992Z,79.72
2019-05-18T22:17:21.322Z,77.12
2019-05-18T22:22:25.722Z,76.22
2019-05-18T22:27:30.285Z,74.07
2019-05-18T22:32:34.599Z,75.97
2019-05-18T22:37:39.026Z,71.55
2019-05-18T22:42:44.218Z,85.38
2019-05-18T22:47:50.429Z,76.82
2019-05-18T22:53:03.063Z,75.37
2019-05-18T22:58:10.237Z,75.85
2019-05-18T23:03:17.058Z,74.95
2019-05-18T23:08:25.465Z,79.65
2019-05-18T23:13:31.266Z,80.22
2019-05-18T23:18:35.578Z,75.50
2019-05-18T23:23:39.908Z,78.83
2019-05-18T23:28:44.281Z,79.95
2019-05-18T23:33:48.678Z,82.08
2019-05-18T23:38:53.088Z,87.40
2019-05-18T23:43:57.497Z,83.35
2019-05-18T23:49:10.386Z,86.78
2019-05-18T23:54:07.952Z,88.30
2019-05-18T23:59:12.317Z,88.15
